Terminal Aerodrome Forecast
Issued by NWS

Home | Current Version | Previous Version | Text Only | Print | Product List | Glossary On
Versions: 1 2 3 4 5 6 7 8 9 10 11 12 13 14 15 16 17 18 19
000
FTUS41 KBOX 271451 AAA
TAFACK
TAF AMD
KACK 271451Z 2715/2812 17006KT P6SM SCT150
     FM280100 21008KT P6SM VCSH BKN050
     FM280500 22009KT P6SM VCSH BKN030
     FM280900 24007KT 3SM BR VCSH OVC015=

USA.gov is the U.S. government's official web portal to all federal, state and local government web resources and services.